Time,TemperatureF,DewpointF,PressureIn,WindDirection,WindDirectionDegrees,WindSpeedMPH,WindSpeedGustMPH,Humidity,HourlyPrecipIn,Conditions,Clouds,dailyrainin,SolarRadiationWatts/m^2,SoftwareType,DateUTC
2013-07-17 00:04:00,73.2,67.7,30.16,SSW,198,0.0,0.0,83,0.00,,---,0.00,0.00,VWS V14.01,2013-07-17 05:04:00,
2013-07-17 00:09:00,72.9,67.4,30.16,SSW,198,0.0,0.0,83,0.00,,---,0.00,0.00,VWS V14.01,2013-07-17 05:09:00,
2013-07-17 00:14:00,72.6,67.8,30.16,SSW,198,1.0,3.0,85,0.00,,---,0.00,0.00,VWS V14.01,2013-07-17 05:14:00,
2013-07-17 00:19:00,72.5,68.1,30.16,SSW,198,2.0,3.0,86,0.00,,---,0.00,0.00,VWS V14.01,2013-07-17 05:19:00,
2013-07-17 00:24:00,72.4,68.0,30.16,SSW,198,3.0,3.0,86,0.00,,---,0.00,0.00,VWS V14.01,2013-07-17 05:24:00,
2013-07-17 00:29:00,72.4,68.0,30.16,SSW,198,0.0,3.0,86,0.00,,---,0.00,0.00,VWS V14.01,2013-07-17 05:29:00,
2013-07-17 00:34:00,72.4,67.6,30.16,SSW,198,0.0,0.0,85,0.00,,---,0.00,0.00,VWS V14.01,2013-07-17 05:34:00,
2013-07-17 00:39:00,72.4,67.6,30.16,SSW,198,0.0,0.0,85,0.00,,---,0.00,0.00,VWS V14.01,2013-07-17 05:39:00,
2013-07-17 00:44:00,72.3,67.5,30.16,SSW,198,0.0,0.0,85,0.00,,---,0.00,0.00,VWS V14.01,2013-07-17 05:44:00,
2013-07-17 00:49:00,72.2,67.4,30.16,SSW,198,0.0,0.0,85,0.00,,---,0.00,0.00,VWS V14.01,2013-07-17 05:49:00,
2013-07-17 00:54:00,72.1,67.3,30.16,SSW,198,0.0,0.0,85,0.00,,---,0.00,0.00,VWS V14.01,2013-07-17 05:54:00,
2013-07-17 00:59:00,72.1,67.3,30.16,SSW,198,0.0,0.0,85,0.00,,---,0.00,0.00,VWS V14.01,2013-07-17 05:59:00,
2013-07-17 01:04:00,72.0,67.2,30.16,SSW,198,0.0,0.0,85,0.00,,---,0.00,0.00,VWS V14.01,2013-07-17 06:04:00,
2013-07-17 01:09:00,71.9,67.2,30.16,SSW,198,0.0,0.0,85,0.00,,---,0.00,0.00,VWS V14.01,2013-07-17 06:09:00,
2013-07-17 01:14:00,71.8,67.4,30.16,SSW,198,0.0,0.0,86,0.00,,---,0.00,0.00,VWS V14.01,2013-07-17 06:14:00,
2013-07-17 01:19:00,71.7,67.3,30.16,SSW,198,3.0,3.0,86,0.00,,---,0.00,0.00,VWS V14.01,2013-07-17 06:19:00,
2013-07-17 01:24:00,71.5,67.1,30.16,SSW,198,2.0,3.0,86,0.00,,---,0.00,0.00,VWS V14.01,2013-07-17 06:24:00,
2013-07-17 01:29:00,71.3,66.9,30.17,SSW,198,4.0,4.0,86,0.00,,---,0.00,0.00,VWS V14.01,2013-07-17 06:29:00,
2013-07-17 01:34:00,71.3,67.2,30.17,SSW,198,3.0,4.0,87,0.00,,---,0.00,0.00,VWS V14.01,2013-07-17 06:34:00,
2013-07-17 01:39:00,71.3,66.9,30.17,SSW,198,0.0,4.0,86,0.00,,---,0.00,0.00,VWS V14.01,2013-07-17 06:39:00,
2013-07-17 01:44:00,71.3,66.9,30.17,SSW,198,0.0,4.0,86,0.00,,---,0.00,0.00,VWS V14.01,2013-07-17 06:44:00,
2013-07-17 01:49:00,71.3,66.9,30.17,SSW,198,0.0,0.0,86,0.00,,---,0.00,0.00,VWS V14.01,2013-07-17 06:49:00,
2013-07-17 01:54:00,71.3,66.9,30.16,SSW,198,0.0,0.0,86,0.00,,---,0.00,0.00,VWS V14.01,2013-07-17 06:54:00,
2013-07-17 01:59:00,71.0,66.9,30.17,SSW,198,2.0,3.0,87,0.00,,---,0.00,0.00,VWS V14.01,2013-07-17 06:59:00,
2013-07-17 02:04:00,70.9,66.8,30.17,SSW,198,0.0,0.0,87,0.00,,---,0.00,0.00,VWS V14.01,2013-07-17 07:04:00,
2013-07-17 02:09:00,70.8,66.7,30.17,SSW,198,0.0,0.0,87,0.00,,---,0.00,0.00,VWS V14.01,2013-07-17 07:09:00,
2013-07-17 02:14:00,70.7,66.7,30.17,SSW,198,0.0,0.0,87,0.00,,---,0.00,0.00,VWS V14.01,2013-07-17 07:14:00,
2013-07-17 02:19:00,70.7,66.7,30.17,SSW,198,0.0,0.0,87,0.00,,---,0.00,0.00,VWS V14.01,2013-07-17 07:19:00,
2013-07-17 02:24:00,70.7,66.7,30.17,SSW,198,0.0,0.0,87,0.00,,---,0.00,0.00,VWS V14.01,2013-07-17 07:24:00,
2013-07-17 02:29:00,70.6,66.6,30.17,SSW,198,0.0,0.0,87,0.00,,---,0.00,0.00,VWS V14.01,2013-07-17 07:29:00,
2013-07-17 02:34:00,70.7,67.0,30.17,SSW,198,0.0,0.0,88,0.00,,---,0.00,0.00,VWS V14.01,2013-07-17 07:34:00,
2013-07-17 02:39:00,70.6,66.9,30.17,SSW,198,2.0,2.0,88,0.00,,---,0.00,0.00,VWS V14.01,2013-07-17 07:39:00,
2013-07-17 02:44:00,70.6,66.9,30.17,SSW,198,0.0,2.0,88,0.00,,---,0.00,0.00,VWS V14.01,2013-07-17 07:44:00,
2013-07-17 02:49:00,70.6,66.9,30.17,SSW,198,0.0,0.0,88,0.00,,---,0.00,0.00,VWS V14.01,2013-07-17 07:49:00,
2013-07-17 02:54:00,70.5,66.4,30.17,SSW,198,0.0,0.0,87,0.00,,---,0.00,0.00,VWS V14.01,2013-07-17 07:54:00,
2013-07-17 02:59:00,70.3,66.6,30.17,SSW,198,0.0,0.0,88,0.00,,---,0.00,0.00,VWS V14.01,2013-07-17 07:59:00,
2013-07-17 03:04:00,70.1,66.1,30.17,SSW,198,0.0,0.0,87,0.00,,---,0.00,0.00,VWS V14.01,2013-07-17 08:04:00,
2013-07-17 03:09:00,69.9,66.2,30.17,SSW,198,0.0,0.0,88,0.00,,---,0.00,0.00,VWS V14.01,2013-07-17 08:09:00,
2013-07-17 03:14:00,69.6,65.9,30.17,SSW,198,0.0,0.0,88,0.00,,---,0.00,0.00,VWS V14.01,2013-07-17 08:14:00,
2013-07-17 03:19:00,69.4,65.7,30.17,SSW,198,0.0,0.0,88,0.00,,---,0.00,0.00,VWS V14.01,2013-07-17 08:19:00,
2013-07-17 03:24:00,69.3,65.9,30.17,SSW,198,0.0,0.0,89,0.00,,---,0.00,0.00,VWS V14.01,2013-07-17 08:24:00,
2013-07-17 03:29:00,69.2,65.8,30.17,SSW,198,0.0,0.0,89,0.00,,---,0.00,0.00,VWS V14.01,2013-07-17 08:29:00,
2013-07-17 03:34:00,69.2,66.2,30.17,SSW,198,0.0,0.0,90,0.00,,---,0.00,0.00,VWS V14.01,2013-07-17 08:34:00,
2013-07-17 03:39:00,69.1,66.1,30.17,SSW,198,0.0,0.0,90,0.00,,---,0.00,0.00,VWS V14.01,2013-07-17 08:39:00,
2013-07-17 03:44:00,69.1,66.1,30.17,SSW,198,0.0,0.0,90,0.00,,---,0.00,0.00,VWS V14.01,2013-07-17 08:44:00,
2013-07-17 03:49:00,69.0,65.9,30.17,SSW,198,0.0,0.0,90,0.00,,---,0.00,0.00,VWS V14.01,2013-07-17 08:49:00,
2013-07-17 03:54:00,69.0,65.9,30.17,SSW,198,0.0,0.0,90,0.00,,---,0.00,0.00,VWS V14.01,2013-07-17 08:54:00,
2013-07-17 03:59:00,69.0,65.9,30.17,SSW,198,0.0,0.0,90,0.00,,---,0.00,0.00,VWS V14.01,2013-07-17 08:59:00,
2013-07-17 04:04:00,69.0,65.9,30.17,SSW,198,0.0,0.0,90,0.00,,---,0.00,0.00,VWS V14.01,2013-07-17 09:04:00,
2013-07-17 04:09:00,69.0,65.9,30.17,SSW,198,0.0,0.0,90,0.00,,---,0.00,0.00,VWS V14.01,2013-07-17 09:09:00,
2013-07-17 04:14:00,69.0,65.9,30.17,SSW,198,0.0,0.0,90,0.00,,---,0.00,0.00,VWS V14.01,2013-07-17 09:14:00,
2013-07-17 04:19:00,69.0,65.9,30.17,SSW,198,0.0,0.0,90,0.00,,---,0.00,0.00,VWS V14.01,2013-07-17 09:19:00,
2013-07-17 04:24:00,69.0,65.9,30.17,SSW,198,0.0,0.0,90,0.00,,---,0.00,0.00,VWS V14.01,2013-07-17 09:24:00,
2013-07-17 04:29:00,68.9,65.8,30.17,SSW,198,0.0,0.0,90,0.00,,---,0.00,0.00,VWS V14.01,2013-07-17 09:29:00,
2013-07-17 04:34:00,68.9,65.8,30.17,SSW,198,0.0,0.0,90,0.00,,---,0.00,0.00,VWS V14.01,2013-07-17 09:34:00,
2013-07-17 04:39:00,68.9,65.8,30.17,SSW,198,0.0,0.0,90,0.00,,---,0.00,0.00,VWS V14.01,2013-07-17 09:39:00,
2013-07-17 04:44:00,69.0,65.9,30.17,SSW,198,0.0,0.0,90,0.00,,---,0.00,0.00,VWS V14.01,2013-07-17 09:44:00,
2013-07-17 04:49:00,69.0,65.9,30.18,SSW,198,0.0,0.0,90,0.00,,---,0.00,0.00,VWS V14.01,2013-07-17 09:49:00,
2013-07-17 04:54:00,69.0,65.9,30.18,SSW,198,0.0,0.0,90,0.00,,---,0.00,0.00,VWS V14.01,2013-07-17 09:54:00,
2013-07-17 04:59:00,69.0,65.9,30.18,SSW,198,0.0,0.0,90,0.00,,---,0.00,0.00,VWS V14.01,2013-07-17 09:59:00,
2013-07-17 05:04:00,69.0,65.9,30.18,SSW,198,0.0,0.0,90,0.00,,---,0.00,0.00,VWS V14.01,2013-07-17 10:04:00,
2013-07-17 05:09:00,69.0,65.9,30.18,SSW,198,0.0,0.0,90,0.00,,---,0.00,0.00,VWS V14.01,2013-07-17 10:09:00,
2013-07-17 05:14:00,69.0,65.9,30.17,SSW,198,0.0,0.0,90,0.00,,---,0.00,0.00,VWS V14.01,2013-07-17 10:14:00,
2013-07-17 05:19:00,69.0,65.9,30.18,SSW,198,0.0,0.0,90,0.00,,---,0.00,0.00,VWS V14.01,2013-07-17 10:19:00,
2013-07-17 05:24:00,69.0,65.9,30.18,SSW,198,0.0,0.0,90,0.00,,---,0.00,0.00,VWS V14.01,2013-07-17 10:24:00,
2013-07-17 05:29:00,68.9,65.8,30.18,SSW,198,0.0,0.0,90,0.00,,---,0.00,0.00,VWS V14.01,2013-07-17 10:29:00,
2013-07-17 05:34:00,68.9,65.8,30.18,SSW,198,0.0,0.0,90,0.00,,---,0.00,0.00,VWS V14.01,2013-07-17 10:34:00,
2013-07-17 05:39:00,68.8,65.8,30.18,SSW,198,0.0,0.0,90,0.00,,---,0.00,0.00,VWS V14.01,2013-07-17 10:39:00,
2013-07-17 05:44:00,68.7,65.7,30.18,SSW,198,0.0,0.0,90,0.00,,---,0.00,0.00,VWS V14.01,2013-07-17 10:44:00,
2013-07-17 05:49:00,68.6,65.6,30.18,SSW,198,0.0,0.0,90,0.00,,---,0.00,0.00,VWS V14.01,2013-07-17 10:49:00,
2013-07-17 05:54:00,68.5,65.8,30.18,SSW,198,0.0,0.0,91,0.00,,---,0.00,5.00,VWS V14.01,2013-07-17 10:54:00,
2013-07-17 05:59:00,68.4,65.7,30.18,SSW,198,0.0,0.0,91,0.00,,---,0.00,7.00,VWS V14.01,2013-07-17 10:59:00,
2013-07-17 06:04:00,68.3,65.6,30.19,SSW,198,0.0,0.0,91,0.00,,---,0.00,11.00,VWS V14.01,2013-07-17 11:04:00,
2013-07-17 06:09:00,68.4,65.7,30.18,SSW,198,2.0,3.0,91,0.00,,---,0.00,12.00,VWS V14.01,2013-07-17 11:09:00,
2013-07-17 06:14:00,68.4,66.0,30.18,SSW,198,2.0,3.0,92,0.00,,---,0.00,19.00,VWS V14.01,2013-07-17 11:14:00,
2013-07-17 06:19:00,68.6,66.2,30.18,SSW,198,1.0,3.0,92,0.00,,---,0.00,25.00,VWS V14.01,2013-07-17 11:19:00,
2013-07-17 06:24:00,68.7,66.3,30.18,SSW,198,1.0,3.0,92,0.00,,---,0.00,33.00,VWS V14.01,2013-07-17 11:24:00,
2013-07-17 06:29:00,68.8,66.4,30.19,SSW,198,0.0,3.0,92,0.00,,---,0.00,40.00,VWS V14.01,2013-07-17 11:29:00,
2013-07-17 06:34:00,69.0,66.6,30.19,SSW,198,3.0,3.0,92,0.00,,---,0.00,47.00,VWS V14.01,2013-07-17 11:34:00,
2013-07-17 06:39:00,69.4,67.3,30.19,SSW,198,2.0,3.0,93,0.00,,---,0.00,54.00,VWS V14.01,2013-07-17 11:39:00,
2013-07-17 06:44:00,69.7,67.3,30.18,SSW,198,2.0,4.0,92,0.00,,---,0.00,69.00,VWS V14.01,2013-07-17 11:44:00,
2013-07-17 06:49:00,70.1,67.7,30.19,SSW,198,4.0,5.0,92,0.00,,---,0.00,81.00,VWS V14.01,2013-07-17 11:49:00,
2013-07-17 06:54:00,70.6,67.8,30.18,SSW,198,3.0,5.0,91,0.00,,---,0.00,95.00,VWS V14.01,2013-07-17 11:54:00,
2013-07-17 06:59:00,71.2,68.1,30.18,SSW,198,5.0,7.0,90,0.00,,---,0.00,107.00,VWS V14.01,2013-07-17 11:59:00,
2013-07-17 07:04:00,71.6,68.2,30.18,SSW,198,3.0,5.0,89,0.00,,---,0.00,123.00,VWS V14.01,2013-07-17 12:04:00,
2013-07-17 07:09:00,72.0,68.6,30.18,SSW,198,5.0,6.0,89,0.00,,---,0.00,135.00,VWS V14.01,2013-07-17 12:09:00,
2013-07-17 07:14:00,72.5,68.8,30.18,SSW,198,2.0,6.0,88,0.00,,---,0.00,146.00,VWS V14.01,2013-07-17 12:14:00,
2013-07-17 07:19:00,72.9,68.8,30.18,SSW,198,2.0,6.0,87,0.00,,---,0.00,158.00,VWS V14.01,2013-07-17 12:19:00,
2013-07-17 07:24:00,73.3,69.2,30.18,SSW,198,5.0,6.0,87,0.00,,---,0.00,174.00,VWS V14.01,2013-07-17 12:24:00,
2013-07-17 07:29:00,73.8,69.3,30.18,SSW,198,5.0,6.0,86,0.00,,---,0.00,188.00,VWS V14.01,2013-07-17 12:29:00,
2013-07-17 07:34:00,74.2,69.8,30.18,SSW,198,3.0,6.0,86,0.00,,---,0.00,200.00,VWS V14.01,2013-07-17 12:34:00,
2013-07-17 07:39:00,74.7,69.9,30.18,SSW,194,6.0,6.0,85,0.00,,---,0.00,218.00,VWS V14.01,2013-07-17 12:39:00,
2013-07-17 07:44:00,75.2,69.7,30.18,SSW,198,6.0,7.0,83,0.00,,---,0.00,229.00,VWS V14.01,2013-07-17 12:44:00,
2013-07-17 07:49:00,75.7,70.2,30.19,SW,219,5.0,8.0,83,0.00,,---,0.00,246.00,VWS V14.01,2013-07-17 12:49:00,
2013-07-17 07:54:00,76.1,69.8,30.19,SW,220,6.0,10.0,81,0.00,,---,0.00,262.00,VWS V14.01,2013-07-17 12:54:00,
2013-07-17 07:59:00,76.5,70.2,30.18,SW,229,7.0,10.0,81,0.00,,---,0.00,276.00,VWS V14.01,2013-07-17 12:59:00,
2013-07-17 08:04:00,76.8,70.2,30.19,SW,215,5.0,7.0,80,0.00,,---,0.00,292.00,VWS V14.01,2013-07-17 13:04:00,
2013-07-17 08:09:00,77.2,70.9,30.19,SW,219,6.0,9.0,81,0.00,,---,0.00,309.00,VWS V14.01,2013-07-17 13:09:00,
2013-07-17 08:14:00,77.8,71.1,30.18,SW,221,6.0,9.0,80,0.00,,---,0.00,323.00,VWS V14.01,2013-07-17 13:14:00,
2013-07-17 08:19:00,78.2,70.8,30.19,SW,228,7.0,7.0,78,0.00,,---,0.00,339.00,VWS V14.01,2013-07-17 13:19:00,
2013-07-17 08:24:00,78.7,71.3,30.19,SW,228,5.0,10.0,78,0.00,,---,0.00,353.00,VWS V14.01,2013-07-17 13:24:00,
2013-07-17 08:29:00,79.4,71.6,30.19,WSW,242,7.0,10.0,77,0.00,,---,0.00,369.00,VWS V14.01,2013-07-17 13:29:00,
2013-07-17 08:34:00,80.1,72.6,30.19,SW,229,7.0,9.0,78,0.00,,---,0.00,385.00,VWS V14.01,2013-07-17 13:34:00,
2013-07-17 08:39:00,80.7,72.0,30.19,SW,230,6.0,11.0,75,0.00,,---,0.00,399.00,VWS V14.01,2013-07-17 13:39:00,
2013-07-17 08:44:00,81.2,72.1,30.19,SW,219,9.0,12.0,74,0.00,,---,0.00,415.00,VWS V14.01,2013-07-17 13:44:00,
2013-07-17 08:49:00,81.7,72.6,30.19,SW,223,5.0,9.0,74,0.00,,---,0.00,429.00,VWS V14.01,2013-07-17 13:49:00,
2013-07-17 08:54:00,82.1,72.2,30.19,SSW,213,8.0,10.0,72,0.00,,---,0.00,445.00,VWS V14.01,2013-07-17 13:54:00,
2013-07-17 08:59:00,82.5,72.6,30.19,SSW,208,8.0,11.0,72,0.00,,---,0.00,459.00,VWS V14.01,2013-07-17 13:59:00,
2013-07-17 09:04:00,83.0,72.6,30.19,SW,226,7.0,12.0,71,0.00,,---,0.00,475.00,VWS V14.01,2013-07-17 14:04:00,
2013-07-17 09:09:00,83.3,72.9,30.19,SW,217,6.0,16.0,71,0.00,,---,0.00,490.00,VWS V14.01,2013-07-17 14:09:00,
2013-07-17 09:14:00,83.7,72.5,30.19,SW,228,7.0,16.0,69,0.00,,---,0.00,503.00,VWS V14.01,2013-07-17 14:14:00,
2013-07-17 09:19:00,84.0,72.7,30.19,SW,236,8.0,10.0,69,0.00,,---,0.00,517.00,VWS V14.01,2013-07-17 14:19:00,
2013-07-17 09:24:00,84.2,72.1,30.19,WSW,237,6.0,15.0,67,0.00,,---,0.00,533.00,VWS V14.01,2013-07-17 14:24:00,
2013-07-17 09:29:00,84.4,71.8,30.18,SW,232,6.0,15.0,66,0.00,,---,0.00,545.00,VWS V14.01,2013-07-17 14:29:00,
2013-07-17 09:34:00,84.6,71.6,30.18,SW,226,11.0,14.0,65,0.00,,---,0.00,561.00,VWS V14.01,2013-07-17 14:34:00,
2013-07-17 09:39:00,84.8,71.7,30.18,SW,233,9.0,14.0,65,0.00,,---,0.00,571.00,VWS V14.01,2013-07-17 14:39:00,
2013-07-17 09:44:00,85.1,72.5,30.18,SW,231,7.0,14.0,66,0.00,,---,0.00,585.00,VWS V14.01,2013-07-17 14:44:00,
2013-07-17 09:49:00,85.5,72.4,30.18,WSW,238,13.0,15.0,65,0.00,,---,0.00,598.00,VWS V14.01,2013-07-17 14:49:00,
2013-07-17 09:54:00,85.6,72.0,30.19,SW,236,7.0,16.0,64,0.00,,---,0.00,615.00,VWS V14.01,2013-07-17 14:54:00,
2013-07-17 09:59:00,85.8,71.8,30.19,SW,232,11.0,16.0,63,0.00,,---,0.00,626.00,VWS V14.01,2013-07-17 14:59:00,
2013-07-17 10:04:00,85.9,71.4,30.19,SW,223,9.0,13.0,62,0.00,,---,0.00,647.00,VWS V14.01,2013-07-17 15:04:00,
2013-07-17 10:09:00,86.1,71.1,30.18,SW,234,11.0,17.0,61,0.00,,---,0.00,679.00,VWS V14.01,2013-07-17 15:09:00,
2013-07-17 10:14:00,86.2,71.2,30.19,WSW,244,8.0,17.0,61,0.00,,---,0.00,679.00,VWS V14.01,2013-07-17 15:14:00,
2013-07-17 10:19:00,86.3,71.3,30.18,WSW,254,13.0,15.0,61,0.00,,---,0.00,680.00,VWS V14.01,2013-07-17 15:19:00,
2013-07-17 10:24:00,86.5,70.5,30.18,WSW,246,11.0,16.0,59,0.00,,---,0.00,693.00,VWS V14.01,2013-07-17 15:24:00,
2013-07-17 10:29:00,86.8,71.3,30.18,WSW,258,12.0,16.0,60,0.00,,---,0.00,703.00,VWS V14.01,2013-07-17 15:29:00,
2013-07-17 10:34:00,86.9,71.3,30.18,WSW,240,9.0,11.0,60,0.00,,---,0.00,719.00,VWS V14.01,2013-07-17 15:34:00,
2013-07-17 10:39:00,87.1,71.5,30.18,WSW,244,5.0,12.0,60,0.00,,---,0.00,731.00,VWS V14.01,2013-07-17 15:39:00,
2013-07-17 10:44:00,87.3,71.2,30.18,WSW,244,12.0,15.0,59,0.00,,---,0.00,738.00,VWS V14.01,2013-07-17 15:44:00,
2013-07-17 10:49:00,87.5,71.9,30.18,WSW,240,6.0,13.0,60,0.00,,---,0.00,745.00,VWS V14.01,2013-07-17 15:49:00,
2013-07-17 10:54:00,87.8,72.7,30.18,SW,229,12.0,14.0,61,0.00,,---,0.00,761.00,VWS V14.01,2013-07-17 15:54:00,
2013-07-17 10:59:00,87.8,70.7,30.18,WSW,244,10.0,17.0,57,0.00,,---,0.00,768.00,VWS V14.01,2013-07-17 15:59:00,
2013-07-17 11:04:00,88.0,72.4,30.18,SW,234,11.0,12.0,60,0.00,,---,0.00,775.00,VWS V14.01,2013-07-17 16:04:00,
2013-07-17 11:09:00,88.1,71.5,30.18,WSW,246,14.0,16.0,58,0.00,,---,0.00,789.00,VWS V14.01,2013-07-17 16:09:00,
2013-07-17 11:15:00,88.4,72.3,30.18,SW,224,8.0,16.0,59,0.00,,---,0.00,798.00,VWS V14.01,2013-07-17 16:15:00,
2013-07-17 11:20:00,88.7,72.0,30.18,SW,223,10.0,15.0,58,0.00,,---,0.00,807.00,VWS V14.01,2013-07-17 16:20:00,
2013-07-17 11:25:00,88.6,71.4,30.18,WSW,256,12.0,15.0,57,0.00,,---,0.00,814.00,VWS V14.01,2013-07-17 16:25:00,
2013-07-17 11:30:00,88.6,70.9,30.18,SW,221,9.0,16.0,56,0.00,,---,0.00,824.00,VWS V14.01,2013-07-17 16:30:00,
2013-07-17 11:35:00,88.6,70.9,30.18,SW,235,13.0,17.0,56,0.00,,---,0.00,833.00,VWS V14.01,2013-07-17 16:35:00,
2013-07-17 11:40:00,88.7,71.0,30.18,WSW,237,14.0,17.0,56,0.00,,---,0.00,842.00,VWS V14.01,2013-07-17 16:40:00,
2013-07-17 11:45:00,88.7,71.0,30.18,SW,219,15.0,17.0,56,0.00,,---,0.00,858.00,VWS V14.01,2013-07-17 16:45:00,
2013-07-17 11:50:00,88.7,72.0,30.18,SW,217,10.0,14.0,58,0.00,,---,0.00,858.00,VWS V14.01,2013-07-17 16:50:00,
2013-07-17 11:55:00,88.9,71.7,30.18,WSW,240,15.0,15.0,57,0.00,,---,0.00,865.00,VWS V14.01,2013-07-17 16:55:00,
2013-07-17 12:00:00,89.2,71.5,30.18,WSW,240,14.0,16.0,56,0.00,,---,0.00,874.00,VWS V14.01,2013-07-17 17:00:00,
2013-07-17 12:05:00,89.4,70.6,30.18,WSW,238,11.0,14.0,54,0.00,,---,0.00,882.00,VWS V14.01,2013-07-17 17:05:00,
2013-07-17 12:10:00,89.2,70.9,30.18,SW,219,9.0,16.0,55,0.00,,---,0.00,886.00,VWS V14.01,2013-07-17 17:10:00,
2013-07-17 12:15:00,89.8,71.5,30.18,WSW,247,13.0,16.0,55,0.00,,---,0.00,902.00,VWS V14.01,2013-07-17 17:15:00,
2013-07-17 12:20:00,90.0,70.6,30.18,SW,229,7.0,14.0,53,0.00,,---,0.00,902.00,VWS V14.01,2013-07-17 17:20:00,
2013-07-17 12:25:00,90.0,70.0,30.18,SW,227,10.0,16.0,52,0.00,,---,0.00,911.00,VWS V14.01,2013-07-17 17:25:00,
2013-07-17 12:30:00,90.1,70.7,30.18,SW,233,12.0,16.0,53,0.00,,---,0.00,916.00,VWS V14.01,2013-07-17 17:30:00,
2013-07-17 12:35:00,90.2,70.8,30.18,SW,221,11.0,15.0,53,0.00,,---,0.00,921.00,VWS V14.01,2013-07-17 17:35:00,
2013-07-17 12:40:00,90.2,70.8,30.18,WSW,240,10.0,17.0,53,0.00,,---,0.00,947.00,VWS V14.01,2013-07-17 17:40:00,
2013-07-17 12:45:00,90.4,70.9,30.18,WSW,245,6.0,17.0,53,0.00,,---,0.00,928.00,VWS V14.01,2013-07-17 17:45:00,
2013-07-17 12:50:00,90.6,71.1,30.18,SW,234,10.0,11.0,53,0.00,,---,0.00,923.00,VWS V14.01,2013-07-17 17:50:00,
2013-07-17 12:55:00,90.7,69.5,30.18,SW,227,12.0,16.0,50,0.00,,---,0.00,921.00,VWS V14.01,2013-07-17 17:55:00,
2013-07-17 13:00:00,90.8,71.3,30.17,WSW,252,10.0,16.0,53,0.00,,---,0.00,947.00,VWS V14.01,2013-07-17 18:00:00,
2013-07-17 13:05:00,91.0,70.4,30.18,SW,230,14.0,15.0,51,0.00,,---,0.00,965.00,VWS V14.01,2013-07-17 18:05:00,
2013-07-17 13:10:00,90.7,70.1,30.17,WSW,244,9.0,16.0,51,0.00,,---,0.00,997.00,VWS V14.01,2013-07-17 18:10:00,
2013-07-17 13:15:00,90.8,70.2,30.17,West,259,11.0,16.0,51,0.00,,---,0.00,981.00,VWS V14.01,2013-07-17 18:15:00,
2013-07-17 13:20:00,90.9,70.3,30.17,WSW,247,10.0,14.0,51,0.00,,---,0.00,1007.00,VWS V14.01,2013-07-17 18:20:00,
2013-07-17 13:25:00,91.3,71.2,30.17,WSW,254,11.0,14.0,52,0.00,,---,0.00,1034.00,VWS V14.01,2013-07-17 18:25:00,
2013-07-17 13:30:00,91.8,71.7,30.17,WSW,242,11.0,14.0,52,0.00,,---,0.00,1020.00,VWS V14.01,2013-07-17 18:30:00,
2013-07-17 13:35:00,92.1,70.8,30.17,WSW,238,11.0,15.0,50,0.00,,---,0.00,986.00,VWS V14.01,2013-07-17 18:35:00,
2013-07-17 13:40:00,91.8,71.7,30.16,SW,230,5.0,15.0,52,0.00,,---,0.00,988.00,VWS V14.01,2013-07-17 18:40:00,
2013-07-17 13:45:00,92.0,70.7,30.16,WSW,255,14.0,18.0,50,0.00,,---,0.00,1000.00,VWS V14.01,2013-07-17 18:45:00,
2013-07-17 13:50:00,91.9,70.6,30.16,WSW,249,9.0,13.0,50,0.00,,---,0.00,984.00,VWS V14.01,2013-07-17 18:50:00,
2013-07-17 13:55:00,92.0,70.7,30.16,WSW,252,9.0,17.0,50,0.00,,---,0.00,991.00,VWS V14.01,2013-07-17 18:55:00,
2013-07-17 14:00:00,92.6,71.3,30.15,WSW,241,10.0,17.0,50,0.00,,---,0.00,990.00,VWS V14.01,2013-07-17 19:00:00,
2013-07-17 14:05:00,92.6,70.7,30.15,WSW,245,12.0,12.0,49,0.00,,---,0.00,977.00,VWS V14.01,2013-07-17 19:05:00,
2013-07-17 14:10:00,92.3,70.4,30.15,SW,231,6.0,14.0,49,0.00,,---,0.00,279.00,VWS V14.01,2013-07-17 19:10:00,
2013-07-17 14:15:00,92.3,71.0,30.15,WSW,245,9.0,17.0,50,0.00,,---,0.00,1005.00,VWS V14.01,2013-07-17 19:15:00,
2013-07-17 14:20:00,91.8,70.5,30.15,West,279,10.0,10.0,50,0.00,,---,0.00,232.00,VWS V14.01,2013-07-17 19:20:00,
2013-07-17 14:25:00,92.0,71.9,30.15,SW,225,11.0,14.0,52,0.00,,---,0.00,1037.00,VWS V14.01,2013-07-17 19:25:00,
2013-07-17 14:30:00,91.7,71.6,30.14,WSW,254,5.0,14.0,52,0.00,,---,0.00,1007.00,VWS V14.01,2013-07-17 19:30:00,
2013-07-17 14:35:00,91.8,69.3,30.14,West,263,9.0,11.0,48,0.00,,---,0.00,193.00,VWS V14.01,2013-07-17 19:35:00,
2013-07-17 14:40:00,91.0,69.8,30.14,WSW,241,9.0,17.0,50,0.00,,---,0.00,313.00,VWS V14.01,2013-07-17 19:40:00,
2013-07-17 14:45:00,91.4,71.9,30.14,SSW,208,8.0,17.0,53,0.00,,---,0.00,1007.00,VWS V14.01,2013-07-17 19:45:00,
2013-07-17 14:50:00,92.4,70.5,30.13,South,183,10.0,16.0,49,0.00,,---,0.00,951.00,VWS V14.01,2013-07-17 19:50:00,
2013-07-17 14:55:00,92.8,69.6,30.13,SW,233,11.0,16.0,47,0.00,,---,0.00,977.00,VWS V14.01,2013-07-17 19:55:00,
2013-07-17 15:00:00,91.7,70.4,30.13,SW,232,10.0,16.0,50,0.00,,---,0.00,232.00,VWS V14.01,2013-07-17 20:00:00,
2013-07-17 15:05:00,91.4,70.7,30.13,WSW,240,12.0,14.0,51,0.00,,---,0.00,1028.00,VWS V14.01,2013-07-17 20:05:00,
2013-07-17 15:10:00,92.2,70.3,30.13,SSW,208,5.0,14.0,49,0.00,,---,0.00,984.00,VWS V14.01,2013-07-17 20:10:00,
2013-07-17 15:15:00,92.7,70.8,30.13,WSW,246,13.0,15.0,49,0.00,,---,0.00,976.00,VWS V14.01,2013-07-17 20:15:00,
2013-07-17 15:20:00,92.7,70.8,30.13,South,186,15.0,16.0,49,0.00,,---,0.00,330.00,VWS V14.01,2013-07-17 20:20:00,
2013-07-17 15:25:00,92.7,70.2,30.13,SSW,205,14.0,18.0,48,0.00,,---,0.00,916.00,VWS V14.01,2013-07-17 20:25:00,
2013-07-17 15:30:00,92.8,70.8,30.12,SSE,161,9.0,18.0,49,0.00,,---,0.00,200.00,VWS V14.01,2013-07-17 20:30:00,
2013-07-17 15:35:00,92.5,71.2,30.12,South,173,11.0,17.0,50,0.00,,---,0.00,944.00,VWS V14.01,2013-07-17 20:35:00,
2013-07-17 15:40:00,92.5,70.6,30.12,SW,217,11.0,18.0,49,0.00,,---,0.00,403.00,VWS V14.01,2013-07-17 20:40:00,
2013-07-17 15:45:00,91.3,70.1,30.12,South,183,5.0,18.0,50,0.00,,---,0.00,179.00,VWS V14.01,2013-07-17 20:45:00,
2013-07-17 15:50:00,91.8,70.5,30.12,SSE,166,7.0,13.0,50,0.00,,---,0.00,877.00,VWS V14.01,2013-07-17 20:50:00,
2013-07-17 15:55:00,92.8,70.2,30.11,SW,223,13.0,16.0,48,0.00,,---,0.00,826.00,VWS V14.01,2013-07-17 20:55:00,
2013-07-17 16:00:00,92.7,70.2,30.12,South,187,11.0,16.0,48,0.00,,---,0.00,828.00,VWS V14.01,2013-07-17 21:00:00,
2013-07-17 16:05:00,91.8,70.5,30.11,SSW,194,5.0,9.0,50,0.00,,---,0.00,162.00,VWS V14.01,2013-07-17 21:05:00,
2013-07-17 16:10:00,91.5,70.8,30.11,SSW,210,10.0,16.0,51,0.00,,---,0.00,863.00,VWS V14.01,2013-07-17 21:10:00,
2013-07-17 16:15:00,91.1,69.9,30.11,SSW,211,7.0,16.0,50,0.00,,---,0.00,232.00,VWS V14.01,2013-07-17 21:15:00,
2013-07-17 16:20:00,90.7,70.7,30.11,South,188,9.0,9.0,52,0.00,,---,0.00,195.00,VWS V14.01,2013-07-17 21:20:00,
2013-07-17 16:25:00,90.4,70.4,30.11,SSW,193,9.0,11.0,52,0.00,,---,0.00,227.00,VWS V14.01,2013-07-17 21:25:00,
2013-07-17 16:30:00,90.7,70.1,30.11,SSW,202,10.0,15.0,51,0.00,,---,0.00,250.00,VWS V14.01,2013-07-17 21:30:00,
2013-07-17 16:35:00,90.8,70.2,30.11,SSW,194,7.0,13.0,51,0.00,,---,0.00,199.00,VWS V14.01,2013-07-17 21:35:00,
2013-07-17 16:40:00,90.6,71.1,30.10,SSW,198,6.0,13.0,53,0.00,,---,0.00,160.00,VWS V14.01,2013-07-17 21:40:00,
2013-07-17 16:45:00,90.8,69.6,30.10,SSW,199,10.0,15.0,50,0.00,,---,0.00,722.00,VWS V14.01,2013-07-17 21:45:00,
2013-07-17 16:50:00,91.7,69.8,30.10,SSW,203,11.0,13.0,49,0.00,,---,0.00,320.00,VWS V14.01,2013-07-17 21:50:00,
2013-07-17 16:55:00,91.4,70.7,30.10,SSW,194,11.0,16.0,51,0.00,,---,0.00,670.00,VWS V14.01,2013-07-17 21:55:00,
2013-07-17 17:00:00,91.8,70.5,30.10,SSW,205,10.0,16.0,50,0.00,,---,0.00,649.00,VWS V14.01,2013-07-17 22:00:00,
2013-07-17 17:05:00,91.9,70.0,30.10,SSW,209,10.0,12.0,49,0.00,,---,0.00,274.00,VWS V14.01,2013-07-17 22:05:00,
2013-07-17 17:10:00,92.1,72.5,30.10,SSW,212,4.0,13.0,53,0.00,,---,0.00,689.00,VWS V14.01,2013-07-17 22:10:00,
2013-07-17 17:15:00,92.6,71.3,30.10,SSW,202,11.0,13.0,50,0.00,,---,0.00,464.00,VWS V14.01,2013-07-17 22:15:00,
2013-07-17 17:20:00,91.8,69.9,30.10,SSW,200,12.0,13.0,49,0.00,,---,0.00,178.00,VWS V14.01,2013-07-17 22:20:00,
2013-07-17 17:25:00,92.0,70.1,30.10,SW,215,11.0,15.0,49,0.00,,---,0.00,557.00,VWS V14.01,2013-07-17 22:25:00,
2013-07-17 17:30:00,92.2,70.3,30.10,SSW,208,12.0,16.0,49,0.00,,---,0.00,554.00,VWS V14.01,2013-07-17 22:30:00,
2013-07-17 17:35:00,92.1,70.2,30.09,SSW,207,13.0,14.0,49,0.00,,---,0.00,522.00,VWS V14.01,2013-07-17 22:35:00,
2013-07-17 17:40:00,92.0,70.1,30.09,SW,225,6.0,14.0,49,0.00,,---,0.00,512.00,VWS V14.01,2013-07-17 22:40:00,
2013-07-17 17:45:00,92.1,70.8,30.09,SSW,194,15.0,15.0,50,0.00,,---,0.00,483.00,VWS V14.01,2013-07-17 22:45:00,
2013-07-17 17:50:00,92.2,70.9,30.08,SSW,205,12.0,12.0,50,0.00,,---,0.00,485.00,VWS V14.01,2013-07-17 22:50:00,
2013-07-17 17:55:00,92.1,70.2,30.08,SSW,194,10.0,16.0,49,0.00,,---,0.00,459.00,VWS V14.01,2013-07-17 22:55:00,
2013-07-17 18:00:00,92.1,72.0,30.08,SSW,205,3.0,16.0,52,0.00,,---,0.00,439.00,VWS V14.01,2013-07-17 23:00:00,
2013-07-17 18:05:00,92.0,70.1,30.08,SW,232,7.0,16.0,49,0.00,,---,0.00,425.00,VWS V14.01,2013-07-17 23:05:00,
2013-07-17 18:10:00,91.8,71.1,30.08,SSW,200,7.0,16.0,51,0.00,,---,0.00,406.00,VWS V14.01,2013-07-17 23:10:00,
2013-07-17 18:15:00,91.7,71.0,30.08,SW,223,10.0,16.0,51,0.00,,---,0.00,399.00,VWS V14.01,2013-07-17 23:15:00,
2013-07-17 18:20:00,91.5,71.4,30.08,SW,215,14.0,15.0,52,0.00,,---,0.00,387.00,VWS V14.01,2013-07-17 23:20:00,
2013-07-17 18:25:00,91.3,71.2,30.07,SSW,210,9.0,15.0,52,0.00,,---,0.00,374.00,VWS V14.01,2013-07-17 23:25:00,
2013-07-17 18:30:00,91.4,71.9,30.07,South,188,10.0,17.0,53,0.00,,---,0.00,350.00,VWS V14.01,2013-07-17 23:30:00,
2013-07-17 18:35:00,91.4,71.3,30.07,SSW,195,7.0,11.0,52,0.00,,---,0.00,330.00,VWS V14.01,2013-07-17 23:35:00,
2013-07-17 18:40:00,91.3,71.8,30.07,SSW,212,10.0,15.0,53,0.00,,---,0.00,325.00,VWS V14.01,2013-07-17 23:40:00,
2013-07-17 18:45:00,91.2,71.7,30.07,SSW,192,11.0,15.0,53,0.00,,---,0.00,308.00,VWS V14.01,2013-07-17 23:45:00,
2013-07-17 18:50:00,91.0,71.5,30.07,SSW,195,9.0,11.0,53,0.00,,---,0.00,285.00,VWS V14.01,2013-07-17 23:50:00,
2013-07-17 18:55:00,90.9,72.5,30.07,SSW,192,10.0,13.0,55,0.00,,---,0.00,265.00,VWS V14.01,2013-07-17 23:55:00,
2013-07-17 19:00:00,90.8,71.3,30.07,SSW,205,7.0,13.0,53,0.00,,---,0.00,255.00,VWS V14.01,2013-07-18 00:00:00,
2013-07-17 19:05:00,90.7,72.3,30.07,SW,227,5.0,9.0,55,0.00,,---,0.00,230.00,VWS V14.01,2013-07-18 00:05:00,
2013-07-17 19:10:00,90.4,71.5,30.07,SW,217,11.0,12.0,54,0.00,,---,0.00,211.00,VWS V14.01,2013-07-18 00:10:00,
2013-07-17 19:15:00,90.1,71.8,30.07,SW,224,8.0,12.0,55,0.00,,---,0.00,193.00,VWS V14.01,2013-07-18 00:15:00,
2013-07-17 19:20:00,89.7,71.9,30.07,SW,224,7.0,11.0,56,0.00,,---,0.00,174.00,VWS V14.01,2013-07-18 00:20:00,
2013-07-17 19:25:00,89.5,72.3,30.07,SW,223,4.0,11.0,57,0.00,,---,0.00,156.00,VWS V14.01,2013-07-18 00:25:00,
2013-07-17 19:30:00,89.3,72.1,30.07,SW,221,6.0,11.0,57,0.00,,---,0.00,146.00,VWS V14.01,2013-07-18 00:30:00,
2013-07-17 19:35:00,89.1,72.4,30.07,SSW,212,3.0,5.0,58,0.00,,---,0.00,132.00,VWS V14.01,2013-07-18 00:35:00,
2013-07-17 19:40:00,89.0,71.3,30.06,SSW,205,7.0,10.0,56,0.00,,---,0.00,118.00,VWS V14.01,2013-07-18 00:40:00,
2013-07-17 19:45:00,89.0,71.3,30.06,SSW,196,11.0,11.0,56,0.00,,---,0.00,102.00,VWS V14.01,2013-07-18 00:45:00,
2013-07-17 19:50:00,88.8,71.1,30.06,SSW,207,5.0,9.0,56,0.00,,---,0.00,88.00,VWS V14.01,2013-07-18 00:50:00,
2013-07-17 19:55:00,88.6,71.4,30.06,SSW,204,9.0,10.0,57,0.00,,---,0.00,74.00,VWS V14.01,2013-07-18 00:55:00,
2013-07-17 20:00:00,88.3,71.7,30.06,SSW,203,9.0,10.0,58,0.00,,---,0.00,63.00,VWS V14.01,2013-07-18 01:00:00,
2013-07-17 20:05:00,87.9,71.3,30.06,SSW,200,6.0,7.0,58,0.00,,---,0.00,53.00,VWS V14.01,2013-07-18 01:05:00,
2013-07-17 20:10:00,87.7,71.6,30.06,SSW,201,3.0,7.0,59,0.00,,---,0.00,44.00,VWS V14.01,2013-07-18 01:10:00,
2013-07-17 20:15:00,87.3,71.2,30.06,SSW,202,5.0,7.0,59,0.00,,---,0.00,37.00,VWS V14.01,2013-07-18 01:15:00,
2013-07-17 20:20:00,86.8,71.3,30.06,SSW,203,3.0,4.0,60,0.00,,---,0.00,30.00,VWS V14.01,2013-07-18 01:20:00,
2013-07-17 20:25:00,86.4,71.4,30.06,SSW,203,3.0,5.0,61,0.00,,---,0.00,25.00,VWS V14.01,2013-07-18 01:25:00,
2013-07-17 20:30:00,86.0,71.5,30.06,SSW,203,3.0,5.0,62,0.00,,---,0.00,21.00,VWS V14.01,2013-07-18 01:30:00,
2013-07-17 20:35:00,85.5,71.5,30.06,SSW,203,4.0,4.0,63,0.00,,---,0.00,18.00,VWS V14.01,2013-07-18 01:35:00,
2013-07-17 20:40:00,85.1,71.6,30.06,SSW,203,3.0,4.0,64,0.00,,---,0.00,14.00,VWS V14.01,2013-07-18 01:40:00,
2013-07-17 20:45:00,84.7,71.6,30.06,SSW,203,3.0,4.0,65,0.00,,---,0.00,12.00,VWS V14.01,2013-07-18 01:45:00,
2013-07-17 20:50:00,84.2,71.6,30.06,SSW,203,3.0,4.0,66,0.00,,---,0.00,9.00,VWS V14.01,2013-07-18 01:50:00,
2013-07-17 20:55:00,83.8,71.7,30.06,SSW,203,2.0,4.0,67,0.00,,---,0.00,5.00,VWS V14.01,2013-07-18 01:55:00,
2013-07-17 21:00:00,83.4,71.7,30.06,SSW,203,4.0,4.0,68,0.00,,---,0.00,0.00,VWS V14.01,2013-07-18 02:00:00,
2013-07-17 21:05:00,83.0,71.4,30.06,SSW,203,3.0,4.0,68,0.00,,---,0.00,0.00,VWS V14.01,2013-07-18 02:05:00,
2013-07-17 21:10:00,82.7,71.5,30.06,SSW,203,4.0,4.0,69,0.00,,---,0.00,0.00,VWS V14.01,2013-07-18 02:10:00,
2013-07-17 21:15:00,82.4,71.2,30.06,SSW,203,3.0,4.0,69,0.00,,---,0.00,0.00,VWS V14.01,2013-07-18 02:15:00,
2013-07-17 21:20:00,82.1,71.3,30.06,SSW,203,4.0,4.0,70,0.00,,---,0.00,0.00,VWS V14.01,2013-07-18 02:20:00,
2013-07-17 21:25:00,82.0,71.3,30.06,SSW,203,3.0,5.0,70,0.00,,---,0.00,0.00,VWS V14.01,2013-07-18 02:25:00,
2013-07-17 21:30:00,81.7,71.0,30.05,SSW,203,4.0,5.0,70,0.00,,---,0.00,0.00,VWS V14.01,2013-07-18 02:30:00,
2013-07-17 21:35:00,81.6,70.9,30.05,SSW,203,4.0,4.0,70,0.00,,---,0.00,0.00,VWS V14.01,2013-07-18 02:35:00,
2013-07-17 21:40:00,81.5,71.2,30.06,SSW,203,4.0,5.0,71,0.00,,---,0.00,0.00,VWS V14.01,2013-07-18 02:40:00,
2013-07-17 21:45:00,81.4,71.1,30.06,SSW,203,4.0,5.0,71,0.00,,---,0.00,0.00,VWS V14.01,2013-07-18 02:45:00,
2013-07-17 21:50:00,81.2,70.9,30.06,SSW,203,3.0,4.0,71,0.00,,---,0.00,0.00,VWS V14.01,2013-07-18 02:50:00,
2013-07-17 21:55:00,81.1,70.8,30.06,SSW,203,2.0,4.0,71,0.00,,---,0.00,0.00,VWS V14.01,2013-07-18 02:55:00,
2013-07-17 22:00:00,80.8,70.9,30.06,SSW,203,2.0,4.0,72,0.00,,---,0.00,0.00,VWS V14.01,2013-07-18 03:00:00,
2013-07-17 22:05:00,80.4,71.0,30.06,SSW,203,1.0,2.0,73,0.00,,---,0.00,0.00,VWS V14.01,2013-07-18 03:05:00,
2013-07-17 22:10:00,80.2,70.8,30.06,SSW,203,2.0,3.0,73,0.00,,---,0.00,0.00,VWS V14.01,2013-07-18 03:10:00,
2013-07-17 22:15:00,79.9,70.9,30.06,SSW,203,3.0,4.0,74,0.00,,---,0.00,0.00,VWS V14.01,2013-07-18 03:15:00,
2013-07-17 22:20:00,79.6,71.0,30.06,SSW,203,3.0,3.0,75,0.00,,---,0.00,0.00,VWS V14.01,2013-07-18 03:20:00,
2013-07-17 22:25:00,79.4,70.8,30.06,SSW,203,3.0,3.0,75,0.00,,---,0.00,0.00,VWS V14.01,2013-07-18 03:25:00,
2013-07-17 22:30:00,79.2,71.0,30.06,SSW,203,3.0,3.0,76,0.00,,---,0.00,0.00,VWS V14.01,2013-07-18 03:30:00,
2013-07-17 22:35:00,79.0,70.8,30.06,SSW,203,4.0,4.0,76,0.00,,---,0.00,0.00,VWS V14.01,2013-07-18 03:35:00,
2013-07-17 22:40:00,78.8,70.6,30.06,SSW,203,3.0,4.0,76,0.00,,---,0.00,0.00,VWS V14.01,2013-07-18 03:40:00,
2013-07-17 22:45:00,78.7,70.9,30.06,SSW,203,2.0,4.0,77,0.00,,---,0.00,0.00,VWS V14.01,2013-07-18 03:45:00,
2013-07-17 22:50:00,78.5,70.7,30.06,SSW,203,2.0,3.0,77,0.00,,---,0.00,0.00,VWS V14.01,2013-07-18 03:50:00,
2013-07-17 22:55:00,78.4,70.6,30.06,SSW,203,2.0,3.0,77,0.00,,---,0.00,0.00,VWS V14.01,2013-07-18 03:55:00,
2013-07-17 23:00:00,78.2,70.8,30.06,SSW,203,0.0,3.0,78,0.00,,---,0.00,0.00,VWS V14.01,2013-07-18 04:00:00,
2013-07-17 23:01:00,78.2,70.8,30.06,SSW,203,0.0,3.0,78,0.00,,---,0.00,0.00,VWS V14.01,2013-07-18 04:01:00,
2013-07-17 23:06:00,78.0,71.0,30.05,SSW,203,0.0,0.0,79,0.00,,---,0.00,0.00,VWS V14.01,2013-07-18 04:06:00,
2013-07-17 23:11:00,77.8,70.8,30.06,SSW,203,0.0,0.0,79,0.00,,---,0.00,0.00,VWS V14.01,2013-07-18 04:11:00,
2013-07-17 23:16:00,77.6,70.9,30.05,SSW,203,1.0,2.0,80,0.00,,---,0.00,0.00,VWS V14.01,2013-07-18 04:16:00,
2013-07-17 23:21:00,77.4,70.8,30.05,SSW,203,1.0,2.0,80,0.00,,---,0.00,0.00,VWS V14.01,2013-07-18 04:21:00,
2013-07-17 23:26:00,77.2,70.9,30.05,SSW,203,1.0,2.0,81,0.00,,---,0.00,0.00,VWS V14.01,2013-07-18 04:26:00,
2013-07-17 23:31:00,76.9,70.6,30.05,SSW,203,1.0,2.0,81,0.00,,---,0.00,0.00,VWS V14.01,2013-07-18 04:31:00,
2013-07-17 23:36:00,76.6,70.3,30.05,SSW,203,2.0,2.0,81,0.00,,---,0.00,0.00,VWS V14.01,2013-07-18 04:36:00,
2013-07-17 23:41:00,76.3,70.4,30.05,SSW,203,2.0,3.0,82,0.00,,---,0.00,0.00,VWS V14.01,2013-07-18 04:41:00,
2013-07-17 23:46:00,76.0,70.1,30.05,SSW,203,2.0,3.0,82,0.00,,---,0.00,0.00,VWS V14.01,2013-07-18 04:46:00,
2013-07-17 23:51:00,75.8,70.3,30.05,SSW,203,1.0,2.0,83,0.00,,---,0.00,0.00,VWS V14.01,2013-07-18 04:51:00,
2013-07-17 23:56:00,75.5,70.0,30.05,SSW,203,0.0,2.0,83,0.00,,---,0.00,0.00,VWS V14.01,2013-07-18 04:56:00,